sensor_id;sensor_type;location;lat;lon;timestamp;pressure;altitude;pressure_sealevel;temperature
79053;BMP280;68451;49.510;6.026;2023-12-20T00:02:15;98028.28;;;5.28
79053;BMP280;68451;49.510;6.026;2023-12-20T00:04:43;98130.22;;;5.91
79053;BMP280;68451;49.510;6.026;2023-12-20T00:07:10;98130.88;;;5.93
79053;BMP280;68451;49.510;6.026;2023-12-20T00:09:37;98113.19;;;5.82
79053;BMP280;68451;49.510;6.026;2023-12-20T00:12:04;98133.06;;;5.96
79053;BMP280;68451;49.510;6.026;2023-12-20T00:14:31;98129.25;;;5.92
79053;BMP280;68451;49.510;6.026;2023-12-20T00:16:57;98069.44;;;5.66
79053;BMP280;68451;49.510;6.026;2023-12-20T00:19:24;98115.09;;;5.95
79053;BMP280;68451;49.510;6.026;2023-12-20T00:21:51;98097.25;;;5.85
79053;BMP280;68451;49.510;6.026;2023-12-20T00:24:18;97981.91;;;5.06
79053;BMP280;68451;49.510;6.026;2023-12-20T00:26:45;98112.47;;;5.88
79053;BMP280;68451;49.510;6.026;2023-12-20T00:29:11;98131.47;;;5.95
79053;BMP280;68451;49.510;6.026;2023-12-20T00:31:38;98114.38;;;5.79
79053;BMP280;68451;49.510;6.026;2023-12-20T00:34:05;98124.63;;;5.88
79053;BMP280;68451;49.510;6.026;2023-12-20T00:36:32;98125.06;;;5.91
79053;BMP280;68451;49.510;6.026;2023-12-20T00:38:59;98040.50;;;5.34
79053;BMP280;68451;49.510;6.026;2023-12-20T00:41:26;98128.56;;;5.83
79053;BMP280;68451;49.510;6.026;2023-12-20T00:43:53;98080.91;;;5.57
79053;BMP280;68451;49.510;6.026;2023-12-20T00:46:19;98119.97;;;5.83
79053;BMP280;68451;49.510;6.026;2023-12-20T00:48:46;98128.03;;;5.88
79053;BMP280;68451;49.510;6.026;2023-12-20T00:51:13;98115.19;;;5.80
79053;BMP280;68451;49.510;6.026;2023-12-20T00:53:40;98123.44;;;5.90
79053;BMP280;68451;49.510;6.026;2023-12-20T00:56:07;98116.06;;;5.87
79053;BMP280;68451;49.510;6.026;2023-12-20T00:58:34;98122.47;;;5.91
79053;BMP280;68451;49.510;6.026;2023-12-20T01:01:01;98019.53;;;5.29
79053;BMP280;68451;49.510;6.026;2023-12-20T01:03:28;98132.69;;;5.99
79053;BMP280;68451;49.510;6.026;2023-12-20T01:05:55;98140.22;;;5.94
79053;BMP280;68451;49.510;6.026;2023-12-20T01:08:22;98117.66;;;5.88
79053;BMP280;68451;49.510;6.026;2023-12-20T01:10:49;98123.28;;;5.98
79053;BMP280;68451;49.510;6.026;2023-12-20T01:13:16;98056.00;;;5.56
79053;BMP280;68451;49.510;6.026;2023-12-20T01:15:43;98120.84;;;5.90
79053;BMP280;68451;49.510;6.026;2023-12-20T01:18:09;98125.47;;;5.95
79053;BMP280;68451;49.510;6.026;2023-12-20T01:20:36;98044.13;;;5.40
79053;BMP280;68451;49.510;6.026;2023-12-20T01:23:03;98112.66;;;5.87
79053;BMP280;68451;49.510;6.026;2023-12-20T01:25:30;98111.81;;;5.86
79053;BMP280;68451;49.510;6.026;2023-12-20T01:27:57;98123.81;;;5.87
79053;BMP280;68451;49.510;6.026;2023-12-20T01:30:24;98135.03;;;5.94
79053;BMP280;68451;49.510;6.026;2023-12-20T01:32:51;98065.31;;;5.50
79053;BMP280;68451;49.510;6.026;2023-12-20T01:35:18;98135.25;;;5.93
79053;BMP280;68451;49.510;6.026;2023-12-20T01:37:45;98026.66;;;5.27
79053;BMP280;68451;49.510;6.026;2023-12-20T01:40:12;98150.59;;;5.94
79053;BMP280;68451;49.510;6.026;2023-12-20T01:42:39;98134.19;;;5.87
79053;BMP280;68451;49.510;6.026;2023-12-20T01:45:07;98144.16;;;5.90
79053;BMP280;68451;49.510;6.026;2023-12-20T01:47:33;98128.91;;;5.80
79053;BMP280;68451;49.510;6.026;2023-12-20T01:50:01;98034.41;;;5.21
79053;BMP280;68451;49.510;6.026;2023-12-20T01:52:30;98129.13;;;5.79
79053;BMP280;68451;49.510;6.026;2023-12-20T01:55:01;98140.31;;;5.86
79053;BMP280;68451;49.510;6.026;2023-12-20T01:57:30;98149.88;;;5.85
79053;BMP280;68451;49.510;6.026;2023-12-20T01:59:57;98158.75;;;5.91
79053;BMP280;68451;49.510;6.026;2023-12-20T02:02:26;98094.78;;;5.49
79053;BMP280;68451;49.510;6.026;2023-12-20T02:04:54;98159.72;;;5.90
79053;BMP280;68451;49.510;6.026;2023-12-20T02:07:23;98081.41;;;5.46
79053;BMP280;68451;49.510;6.026;2023-12-20T02:09:50;98155.72;;;5.88
79053;BMP280;68451;49.510;6.026;2023-12-20T02:12:17;98162.69;;;5.87
79053;BMP280;68451;49.510;6.026;2023-12-20T02:14:45;98169.72;;;5.93
79053;BMP280;68451;49.510;6.026;2023-12-20T02:17:12;98170.72;;;5.92
79053;BMP280;68451;49.510;6.026;2023-12-20T02:19:38;98183.03;;;5.90
79053;BMP280;68451;49.510;6.026;2023-12-20T02:22:15;98108.28;;;5.45
79053;BMP280;68451;49.510;6.026;2023-12-20T02:25:07;98183.28;;;5.95
79053;BMP280;68451;49.510;6.026;2023-12-20T02:27:34;98189.28;;;5.96
79053;BMP280;68451;49.510;6.026;2023-12-20T02:30:02;98173.41;;;5.84
79053;BMP280;68451;49.510;6.026;2023-12-20T02:32:29;98184.09;;;5.96
79053;BMP280;68451;49.510;6.026;2023-12-20T02:34:58;98178.06;;;5.89
79053;BMP280;68451;49.510;6.026;2023-12-20T02:37:25;98187.66;;;5.95
79053;BMP280;68451;49.510;6.026;2023-12-20T02:39:52;98183.72;;;5.99
79053;BMP280;68451;49.510;6.026;2023-12-20T02:42:18;98191.13;;;6.02
79053;BMP280;68451;49.510;6.026;2023-12-20T02:44:45;98171.31;;;5.94
79053;BMP280;68451;49.510;6.026;2023-12-20T02:47:12;98200.31;;;6.04
79053;BMP280;68451;49.510;6.026;2023-12-20T02:49:39;98175.91;;;5.92
79053;BMP280;68451;49.510;6.026;2023-12-20T02:52:06;98195.50;;;6.01
79053;BMP280;68451;49.510;6.026;2023-12-20T02:54:33;98185.88;;;5.95
79053;BMP280;68451;49.510;6.026;2023-12-20T02:56:59;98195.81;;;5.92
79053;BMP280;68451;49.510;6.026;2023-12-20T02:59:26;98162.31;;;5.69
79053;BMP280;68451;49.510;6.026;2023-12-20T03:01:53;98215.38;;;5.94
79053;BMP280;68451;49.510;6.026;2023-12-20T03:04:20;98060.75;;;4.88
79053;BMP280;68451;49.510;6.026;2023-12-20T03:06:47;98177.47;;;5.72
79053;BMP280;68451;49.510;6.026;2023-12-20T03:09:14;98208.19;;;5.75
79053;BMP280;68451;49.510;6.026;2023-12-20T03:11:41;98174.44;;;5.47
79053;BMP280;68451;49.510;6.026;2023-12-20T03:14:07;98228.78;;;5.62
79053;BMP280;68451;49.510;6.026;2023-12-20T03:16:34;98232.66;;;5.51
79053;BMP280;68451;49.510;6.026;2023-12-20T03:19:02;98247.81;;;5.54
79053;BMP280;68451;49.510;6.026;2023-12-20T03:21:29;98254.00;;;5.53
79053;BMP280;68451;49.510;6.026;2023-12-20T03:23:56;98258.47;;;5.45
79053;BMP280;68451;49.510;6.026;2023-12-20T03:26:22;98040.91;;;4.09
79053;BMP280;68451;49.510;6.026;2023-12-20T03:28:49;98213.91;;;5.13
79053;BMP280;68451;49.510;6.026;2023-12-20T03:31:16;98265.09;;;5.32
79053;BMP280;68451;49.510;6.026;2023-12-20T03:33:43;98184.22;;;4.80
79053;BMP280;68451;49.510;6.026;2023-12-20T03:36:10;98251.38;;;5.17
79053;BMP280;68451;49.510;6.026;2023-12-20T03:38:37;98249.34;;;4.98
79053;BMP280;68451;49.510;6.026;2023-12-20T03:41:04;98291.56;;;5.13
79053;BMP280;68451;49.510;6.026;2023-12-20T03:43:31;98298.50;;;4.98
79053;BMP280;68451;49.510;6.026;2023-12-20T03:45:57;98297.78;;;4.89
79053;BMP280;68451;49.510;6.026;2023-12-20T03:48:25;98266.97;;;4.65
79053;BMP280;68451;49.510;6.026;2023-12-20T03:50:52;98214.94;;;4.31
79053;BMP280;68451;49.510;6.026;2023-12-20T03:53:19;98243.41;;;4.45
79053;BMP280;68451;49.510;6.026;2023-12-20T03:55:45;98292.84;;;4.65
79053;BMP280;68451;49.510;6.026;2023-12-20T03:58:12;98285.97;;;4.58
79053;BMP280;68451;49.510;6.026;2023-12-20T04:00:39;98286.66;;;4.51
79053;BMP280;68451;49.510;6.026;2023-12-20T04:03:06;98290.25;;;4.50
79053;BMP280;68451;49.510;6.026;2023-12-20T04:05:34;98290.56;;;4.47
79053;BMP280;68451;49.510;6.026;2023-12-20T04:08:01;98285.63;;;4.38
79053;BMP280;68451;49.510;6.026;2023-12-20T04:10:28;98281.56;;;4.21
79053;BMP280;68451;49.510;6.026;2023-12-20T04:12:55;98276.31;;;4.14
79053;BMP280;68451;49.510;6.026;2023-12-20T04:15:22;98250.53;;;4.06
79053;BMP280;68451;49.510;6.026;2023-12-20T04:17:49;98270.22;;;4.07
79053;BMP280;68451;49.510;6.026;2023-12-20T04:20:16;98275.28;;;4.00
79053;BMP280;68451;49.510;6.026;2023-12-20T04:22:43;98282.28;;;3.92
79053;BMP280;68451;49.510;6.026;2023-12-20T04:25:10;98295.81;;;3.94
79053;BMP280;68451;49.510;6.026;2023-12-20T04:27:37;98268.44;;;3.85
79053;BMP280;68451;49.510;6.026;2023-12-20T04:30:04;98280.06;;;3.81
79053;BMP280;68451;49.510;6.026;2023-12-20T04:32:31;98154.09;;;2.92
79053;BMP280;68451;49.510;6.026;2023-12-20T04:34:58;98276.94;;;3.63
79053;BMP280;68451;49.510;6.026;2023-12-20T04:37:25;98279.44;;;3.56
79053;BMP280;68451;49.510;6.026;2023-12-20T04:39:52;98215.31;;;3.06
79053;BMP280;68451;49.510;6.026;2023-12-20T04:42:19;98186.84;;;2.83
79053;BMP280;68451;49.510;6.026;2023-12-20T04:44:45;98298.97;;;3.50
79053;BMP280;68451;49.510;6.026;2023-12-20T04:47:12;98287.88;;;3.42
79053;BMP280;68451;49.510;6.026;2023-12-20T04:49:39;98295.59;;;3.50
79053;BMP280;68451;49.510;6.026;2023-12-20T04:52:06;98302.00;;;3.54
79053;BMP280;68451;49.510;6.026;2023-12-20T04:54:33;98221.28;;;3.06
79053;BMP280;68451;49.510;6.026;2023-12-20T04:57:00;98305.03;;;3.66
79053;BMP280;68451;49.510;6.026;2023-12-20T04:59:26;98321.91;;;3.76
79053;BMP280;68451;49.510;6.026;2023-12-20T05:04:28;98300.19;;;3.63
79053;BMP280;68451;49.510;6.026;2023-12-20T05:06:55;98012.00;;;1.78
79053;BMP280;68451;49.510;6.026;2023-12-20T05:09:22;98310.16;;;3.74
79053;BMP280;68451;49.510;6.026;2023-12-20T05:11:49;98285.50;;;3.63
79053;BMP280;68451;49.510;6.026;2023-12-20T05:14:16;98167.66;;;2.94
79053;BMP280;68451;49.510;6.026;2023-12-20T05:16:43;98329.06;;;3.97
79053;BMP280;68451;49.510;6.026;2023-12-20T05:19:10;98296.28;;;3.75
79053;BMP280;68451;49.510;6.026;2023-12-20T05:21:37;98298.16;;;3.81
79053;BMP280;68451;49.510;6.026;2023-12-20T05:24:04;98306.19;;;3.86
79053;BMP280;68451;49.510;6.026;2023-12-20T05:26:31;98293.50;;;3.76
79053;BMP280;68451;49.510;6.026;2023-12-20T05:28:58;98306.34;;;3.92
79053;BMP280;68451;49.510;6.026;2023-12-20T05:31:24;98326.75;;;4.02
79053;BMP280;68451;49.510;6.026;2023-12-20T05:33:51;98349.94;;;4.18
79053;BMP280;68451;49.510;6.026;2023-12-20T05:36:18;98357.97;;;4.23
79053;BMP280;68451;49.510;6.026;2023-12-20T05:38:45;98339.91;;;4.15
79053;BMP280;68451;49.510;6.026;2023-12-20T05:41:12;98271.59;;;3.72
79053;BMP280;68451;49.510;6.026;2023-12-20T05:43:40;98300.00;;;3.95
79053;BMP280;68451;49.510;6.026;2023-12-20T05:46:06;98345.22;;;4.22
79053;BMP280;68451;49.510;6.026;2023-12-20T05:48:33;98332.75;;;4.25
79053;BMP280;68451;49.510;6.026;2023-12-20T05:51:00;98303.50;;;4.02
79053;BMP280;68451;49.510;6.026;2023-12-20T05:53:27;98343.09;;;4.25
79053;BMP280;68451;49.510;6.026;2023-12-20T05:55:54;98324.66;;;4.05
79053;BMP280;68451;49.510;6.026;2023-12-20T05:58:21;98311.66;;;3.91
79053;BMP280;68451;49.510;6.026;2023-12-20T06:00:48;98330.03;;;3.96
79053;BMP280;68451;49.510;6.026;2023-12-20T06:03:15;98303.03;;;3.76
79053;BMP280;68451;49.510;6.026;2023-12-20T06:05:44;98334.91;;;3.91
79053;BMP280;68451;49.510;6.026;2023-12-20T06:08:10;98354.41;;;3.93
79053;BMP280;68451;49.510;6.026;2023-12-20T06:10:37;98338.59;;;3.96
79053;BMP280;68451;49.510;6.026;2023-12-20T06:13:04;98299.38;;;3.70
79053;BMP280;68451;49.510;6.026;2023-12-20T06:15:33;98166.03;;;2.93
79053;BMP280;68451;49.510;6.026;2023-12-20T06:18:00;98318.97;;;3.87
79053;BMP280;68451;49.510;6.026;2023-12-20T06:20:27;98330.25;;;3.86
79053;BMP280;68451;49.510;6.026;2023-12-20T06:22:53;98360.34;;;4.02
79053;BMP280;68451;49.510;6.026;2023-12-20T06:25:20;98341.44;;;3.79
79053;BMP280;68451;49.510;6.026;2023-12-20T06:27:47;98350.63;;;3.81
79053;BMP280;68451;49.510;6.026;2023-12-20T06:30:16;98338.22;;;3.77
79053;BMP280;68451;49.510;6.026;2023-12-20T06:32:43;98328.75;;;3.69
79053;BMP280;68451;49.510;6.026;2023-12-20T06:35:10;98343.28;;;3.70
79053;BMP280;68451;49.510;6.026;2023-12-20T06:37:36;98282.28;;;3.30
79053;BMP280;68451;49.510;6.026;2023-12-20T06:40:04;98352.41;;;3.81
79053;BMP280;68451;49.510;6.026;2023-12-20T06:42:31;98367.28;;;3.79
79053;BMP280;68451;49.510;6.026;2023-12-20T06:45:05;98342.50;;;3.62
79053;BMP280;68451;49.510;6.026;2023-12-20T06:47:32;98206.69;;;2.83
79053;BMP280;68451;49.510;6.026;2023-12-20T06:49:59;98333.75;;;3.63
79053;BMP280;68451;49.510;6.026;2023-12-20T06:52:27;98356.63;;;3.74
79053;BMP280;68451;49.510;6.026;2023-12-20T06:54:54;98356.94;;;3.79
79053;BMP280;68451;49.510;6.026;2023-12-20T06:57:21;98372.50;;;4.01
79053;BMP280;68451;49.510;6.026;2023-12-20T06:59:48;98357.31;;;3.98
79053;BMP280;68451;49.510;6.026;2023-12-20T07:02:15;98227.31;;;3.22
79053;BMP280;68451;49.510;6.026;2023-12-20T07:04:42;98372.50;;;4.24
79053;BMP280;68451;49.510;6.026;2023-12-20T07:07:09;98357.78;;;4.25
79053;BMP280;68451;49.510;6.026;2023-12-20T07:09:36;98358.94;;;4.22
79053;BMP280;68451;49.510;6.026;2023-12-20T07:12:03;98380.22;;;4.32
79053;BMP280;68451;49.510;6.026;2023-12-20T07:14:30;98384.75;;;4.30
79053;BMP280;68451;49.510;6.026;2023-12-20T07:16:57;98351.94;;;4.08
79053;BMP280;68451;49.510;6.026;2023-12-20T07:19:24;98281.81;;;3.57
79053;BMP280;68451;49.510;6.026;2023-12-20T07:21:51;98096.75;;;2.51
79053;BMP280;68451;49.510;6.026;2023-12-20T07:24:18;98315.88;;;3.92
79053;BMP280;68451;49.510;6.026;2023-12-20T07:26:45;98367.31;;;4.24
79053;BMP280;68451;49.510;6.026;2023-12-20T07:29:11;98371.81;;;4.30
79053;BMP280;68451;49.510;6.026;2023-12-20T07:31:38;98295.72;;;3.87
79053;BMP280;68451;49.510;6.026;2023-12-20T07:34:05;98370.84;;;4.31
79053;BMP280;68451;49.510;6.026;2023-12-20T07:36:32;98395.31;;;4.43
79053;BMP280;68451;49.510;6.026;2023-12-20T07:38:59;98406.63;;;4.42
79053;BMP280;68451;49.510;6.026;2023-12-20T07:41:26;98385.84;;;4.36
79053;BMP280;68451;49.510;6.026;2023-12-20T07:43:53;98390.56;;;4.32
79053;BMP280;68451;49.510;6.026;2023-12-20T07:46:20;98394.91;;;4.32
79053;BMP280;68451;49.510;6.026;2023-12-20T07:48:49;98407.22;;;4.53
79053;BMP280;68451;49.510;6.026;2023-12-20T07:51:16;98381.53;;;4.28
79053;BMP280;68451;49.510;6.026;2023-12-20T07:53:43;98414.00;;;4.54
79053;BMP280;68451;49.510;6.026;2023-12-20T07:56:14;98393.38;;;4.45
79053;BMP280;68451;49.510;6.026;2023-12-20T07:58:41;98365.03;;;4.29
79053;BMP280;68451;49.510;6.026;2023-12-20T08:01:18;98357.63;;;4.26
79053;BMP280;68451;49.510;6.026;2023-12-20T08:03:45;98351.53;;;4.19
79053;BMP280;68451;49.510;6.026;2023-12-20T08:06:13;98360.97;;;4.35
79053;BMP280;68451;49.510;6.026;2023-12-20T08:08:40;98369.09;;;4.46
79053;BMP280;68451;49.510;6.026;2023-12-20T08:11:09;98371.44;;;4.41
79053;BMP280;68451;49.510;6.026;2023-12-20T08:13:36;98377.56;;;4.40
79053;BMP280;68451;49.510;6.026;2023-12-20T08:16:03;98337.34;;;4.15
79053;BMP280;68451;49.510;6.026;2023-12-20T08:18:32;98226.03;;;3.56
79053;BMP280;68451;49.510;6.026;2023-12-20T08:20:59;98392.84;;;4.50
79053;BMP280;68451;49.510;6.026;2023-12-20T08:23:27;98399.06;;;4.64
79053;BMP280;68451;49.510;6.026;2023-12-20T08:25:55;98401.00;;;4.62
79053;BMP280;68451;49.510;6.026;2023-12-20T08:28:23;98423.69;;;4.74
79053;BMP280;68451;49.510;6.026;2023-12-20T08:30:50;98381.78;;;4.41
79053;BMP280;68451;49.510;6.026;2023-12-20T08:33:20;98414.84;;;4.69
79053;BMP280;68451;49.510;6.026;2023-12-20T08:35:47;98437.09;;;4.78
79053;BMP280;68451;49.510;6.026;2023-12-20T08:38:15;98334.59;;;4.17
79053;BMP280;68451;49.510;6.026;2023-12-20T08:40:42;98410.53;;;4.61
79053;BMP280;68451;49.510;6.026;2023-12-20T08:43:09;98379.63;;;4.45
79053;BMP280;68451;49.510;6.026;2023-12-20T08:45:36;98429.16;;;4.79
79053;BMP280;68451;49.510;6.026;2023-12-20T08:48:03;98418.59;;;4.66
79053;BMP280;68451;49.510;6.026;2023-12-20T08:50:34;98414.22;;;4.67
79053;BMP280;68451;49.510;6.026;2023-12-20T08:53:02;98426.75;;;4.78
79053;BMP280;68451;49.510;6.026;2023-12-20T08:55:29;98335.16;;;4.27
79053;BMP280;68451;49.510;6.026;2023-12-20T08:57:58;98388.66;;;4.72
79053;BMP280;68451;49.510;6.026;2023-12-20T09:00:25;98404.66;;;4.90
79053;BMP280;68451;49.510;6.026;2023-12-20T09:02:54;98402.00;;;4.98
79053;BMP280;68451;49.510;6.026;2023-12-20T09:05:21;98407.94;;;5.21
79053;BMP280;68451;49.510;6.026;2023-12-20T09:07:49;98429.38;;;5.45
79053;BMP280;68451;49.510;6.026;2023-12-20T09:10:16;98404.94;;;5.47
79053;BMP280;68451;49.510;6.026;2023-12-20T09:12:52;98285.09;;;4.80
79053;BMP280;68451;49.510;6.026;2023-12-20T09:15:24;98434.75;;;5.72
79053;BMP280;68451;49.510;6.026;2023-12-20T09:17:52;98437.53;;;5.71
79053;BMP280;68451;49.510;6.026;2023-12-20T09:20:19;98349.81;;;5.09
79053;BMP280;68451;49.510;6.026;2023-12-20T09:22:47;98445.91;;;5.73
79053;BMP280;68451;49.510;6.026;2023-12-20T09:25:14;98283.41;;;4.72
79053;BMP280;68451;49.510;6.026;2023-12-20T09:27:42;98438.41;;;5.78
79053;BMP280;68451;49.510;6.026;2023-12-20T09:30:10;98383.75;;;5.44
79053;BMP280;68451;49.510;6.026;2023-12-20T09:32:37;98423.41;;;5.73
79053;BMP280;68451;49.510;6.026;2023-12-20T09:35:04;98406.72;;;5.61
79053;BMP280;68451;49.510;6.026;2023-12-20T09:37:33;98425.28;;;5.65
79053;BMP280;68451;49.510;6.026;2023-12-20T09:40:00;98413.41;;;5.56
79053;BMP280;68451;49.510;6.026;2023-12-20T09:42:39;98344.28;;;5.12
79053;BMP280;68451;49.510;6.026;2023-12-20T09:45:13;98434.94;;;5.71
79053;BMP280;68451;49.510;6.026;2023-12-20T09:47:43;98397.50;;;5.59
79053;BMP280;68451;49.510;6.026;2023-12-20T09:50:10;98426.88;;;5.80
79053;BMP280;68451;49.510;6.026;2023-12-20T09:52:38;98412.59;;;5.70
79053;BMP280;68451;49.510;6.026;2023-12-20T09:55:06;98401.44;;;5.55
79053;BMP280;68451;49.510;6.026;2023-12-20T09:57:34;98429.75;;;5.71
79053;BMP280;68451;49.510;6.026;2023-12-20T10:00:01;98434.22;;;5.77
79053;BMP280;68451;49.510;6.026;2023-12-20T10:02:31;98409.28;;;5.76
79053;BMP280;68451;49.510;6.026;2023-12-20T10:04:59;98365.97;;;5.55
79053;BMP280;68451;49.510;6.026;2023-12-20T10:07:27;98407.16;;;5.94
79053;BMP280;68451;49.510;6.026;2023-12-20T10:09:54;98278.88;;;5.04
79053;BMP280;68451;49.510;6.026;2023-12-20T10:12:22;98402.78;;;5.80
79053;BMP280;68451;49.510;6.026;2023-12-20T10:14:50;98366.69;;;5.64
79053;BMP280;68451;49.510;6.026;2023-12-20T10:17:17;98403.31;;;5.90
79053;BMP280;68451;49.510;6.026;2023-12-20T10:19:45;98382.81;;;5.80
79053;BMP280;68451;49.510;6.026;2023-12-20T10:22:12;98398.41;;;5.95
79053;BMP280;68451;49.510;6.026;2023-12-20T10:24:40;98374.34;;;5.72
79053;BMP280;68451;49.510;6.026;2023-12-20T10:27:07;98406.38;;;5.94
79053;BMP280;68451;49.510;6.026;2023-12-20T10:29:38;98395.75;;;5.89
79053;BMP280;68451;49.510;6.026;2023-12-20T10:32:31;98413.13;;;5.95
79053;BMP280;68451;49.510;6.026;2023-12-20T10:34:59;98257.09;;;4.98
79053;BMP280;68451;49.510;6.026;2023-12-20T10:37:26;98362.47;;;5.63
79053;BMP280;68451;49.510;6.026;2023-12-20T10:39:54;98419.06;;;5.89
79053;BMP280;68451;49.510;6.026;2023-12-20T10:42:26;98364.19;;;5.56
79053;BMP280;68451;49.510;6.026;2023-12-20T10:44:53;98391.19;;;5.61
79053;BMP280;68451;49.510;6.026;2023-12-20T10:47:20;98398.41;;;5.66
79053;BMP280;68451;49.510;6.026;2023-12-20T10:49:47;98393.84;;;5.68
79053;BMP280;68451;49.510;6.026;2023-12-20T10:52:16;98260.84;;;4.81
79053;BMP280;68451;49.510;6.026;2023-12-20T10:54:44;98379.31;;;5.67
79053;BMP280;68451;49.510;6.026;2023-12-20T10:57:12;98337.22;;;5.50
79053;BMP280;68451;49.510;6.026;2023-12-20T10:59:39;98339.00;;;5.64
79053;BMP280;68451;49.510;6.026;2023-12-20T11:02:06;98354.69;;;5.77
79053;BMP280;68451;49.510;6.026;2023-12-20T11:07:19;98362.09;;;5.95
79053;BMP280;68451;49.510;6.026;2023-12-20T11:12:51;98363.59;;;6.04
79053;BMP280;68451;49.510;6.026;2023-12-20T11:15:20;98242.34;;;5.28
79053;BMP280;68451;49.510;6.026;2023-12-20T11:17:54;98376.53;;;6.19
79053;BMP280;68451;49.510;6.026;2023-12-20T11:20:23;98194.19;;;5.12
79053;BMP280;68451;49.510;6.026;2023-12-20T11:22:54;98341.47;;;6.23
79053;BMP280;68451;49.510;6.026;2023-12-20T11:25:22;98314.75;;;6.22
79053;BMP280;68451;49.510;6.026;2023-12-20T11:28:07;98330.97;;;6.31
79053;BMP280;68451;49.510;6.026;2023-12-20T11:30:42;98372.91;;;6.56
79053;BMP280;68451;49.510;6.026;2023-12-20T11:33:15;98338.56;;;6.54
79053;BMP280;68451;49.510;6.026;2023-12-20T11:35:45;98210.13;;;5.66
79053;BMP280;68451;49.510;6.026;2023-12-20T11:38:13;98056.00;;;4.56
79053;BMP280;68451;49.510;6.026;2023-12-20T11:40:42;98368.28;;;6.51
79053;BMP280;68451;49.510;6.026;2023-12-20T11:43:09;98363.66;;;6.47
79053;BMP280;68451;49.510;6.026;2023-12-20T11:45:36;98340.91;;;6.49
79053;BMP280;68451;49.510;6.026;2023-12-20T11:48:04;98354.81;;;6.41
79053;BMP280;68451;49.510;6.026;2023-12-20T11:50:32;98370.44;;;6.48
79053;BMP280;68451;49.510;6.026;2023-12-20T11:52:59;98348.88;;;6.26
79053;BMP280;68451;49.510;6.026;2023-12-20T11:55:27;98371.53;;;6.39
79053;BMP280;68451;49.510;6.026;2023-12-20T11:57:54;98319.53;;;6.04
79053;BMP280;68451;49.510;6.026;2023-12-20T12:00:21;98347.94;;;6.12
79053;BMP280;68451;49.510;6.026;2023-12-20T12:02:58;98332.38;;;6.12
79053;BMP280;68451;49.510;6.026;2023-12-20T12:05:25;98341.03;;;6.19
79053;BMP280;68451;49.510;6.026;2023-12-20T12:07:53;98347.03;;;6.20
79053;BMP280;68451;49.510;6.026;2023-12-20T12:10:20;98323.19;;;6.10
79053;BMP280;68451;49.510;6.026;2023-12-20T12:12:47;98244.59;;;5.67
79053;BMP280;68451;49.510;6.026;2023-12-20T12:15:15;98360.44;;;6.45
79053;BMP280;68451;49.510;6.026;2023-12-20T12:17:42;98341.44;;;6.38
79053;BMP280;68451;49.510;6.026;2023-12-20T12:20:09;98344.44;;;6.41
79053;BMP280;68451;49.510;6.026;2023-12-20T12:22:37;98333.25;;;6.41
79053;BMP280;68451;49.510;6.026;2023-12-20T12:25:11;98315.25;;;6.33
79053;BMP280;68451;49.510;6.026;2023-12-20T12:27:42;98336.78;;;6.54
79053;BMP280;68451;49.510;6.026;2023-12-20T12:30:10;98270.16;;;6.12
79053;BMP280;68451;49.510;6.026;2023-12-20T12:32:39;98315.19;;;6.47
79053;BMP280;68451;49.510;6.026;2023-12-20T12:35:07;98296.31;;;6.39
79053;BMP280;68451;49.510;6.026;2023-12-20T12:37:38;98298.19;;;6.45
79053;BMP280;68451;49.510;6.026;2023-12-20T12:40:09;98307.25;;;6.55
79053;BMP280;68451;49.510;6.026;2023-12-20T12:42:37;98312.00;;;6.52
79053;BMP280;68451;49.510;6.026;2023-12-20T12:45:05;98320.56;;;6.73
79053;BMP280;68451;49.510;6.026;2023-12-20T12:47:32;98262.63;;;6.17
79053;BMP280;68451;49.510;6.026;2023-12-20T12:49:59;98291.03;;;6.47
79053;BMP280;68451;49.510;6.026;2023-12-20T12:52:27;98291.03;;;6.47
79053;BMP280;68451;49.510;6.026;2023-12-20T12:54:54;98295.00;;;6.43
79053;BMP280;68451;49.510;6.026;2023-12-20T12:57:21;98286.59;;;6.41
79053;BMP280;68451;49.510;6.026;2023-12-20T12:59:48;98149.66;;;5.59
79053;BMP280;68451;49.510;6.026;2023-12-20T13:02:15;98294.84;;;6.51
79053;BMP280;68451;49.510;6.026;2023-12-20T13:04:43;98285.47;;;6.50
79053;BMP280;68451;49.510;6.026;2023-12-20T13:07:10;98244.59;;;6.30
79053;BMP280;68451;49.510;6.026;2023-12-20T13:09:40;98270.88;;;6.49
79053;BMP280;68451;49.510;6.026;2023-12-20T13:12:07;98275.41;;;6.68
79053;BMP280;68451;49.510;6.026;2023-12-20T13:14:34;98268.88;;;6.79
79053;BMP280;68451;49.510;6.026;2023-12-20T13:17:04;98236.88;;;6.65
79053;BMP280;68451;49.510;6.026;2023-12-20T13:19:31;98256.88;;;6.71
79053;BMP280;68451;49.510;6.026;2023-12-20T13:21:59;98255.41;;;6.62
79053;BMP280;68451;49.510;6.026;2023-12-20T13:24:26;98259.38;;;6.58
79053;BMP280;68451;49.510;6.026;2023-12-20T13:26:52;98253.28;;;6.44
79053;BMP280;68451;49.510;6.026;2023-12-20T13:29:19;98215.97;;;6.17
79053;BMP280;68451;49.510;6.026;2023-12-20T13:31:46;98112.09;;;5.70
79053;BMP280;68451;49.510;6.026;2023-12-20T13:34:13;98210.38;;;6.42
79053;BMP280;68451;49.510;6.026;2023-12-20T13:36:41;98219.94;;;6.41
79053;BMP280;68451;49.510;6.026;2023-12-20T13:39:08;98085.31;;;5.63
79053;BMP280;68451;49.510;6.026;2023-12-20T13:41:34;98211.13;;;6.36
79053;BMP280;68451;49.510;6.026;2023-12-20T13:44:01;98224.47;;;6.33
79053;BMP280;68451;49.510;6.026;2023-12-20T13:46:30;98216.63;;;6.26
79053;BMP280;68451;49.510;6.026;2023-12-20T13:48:58;98246.16;;;6.53
79053;BMP280;68451;49.510;6.026;2023-12-20T13:51:25;98185.63;;;6.11
79053;BMP280;68451;49.510;6.026;2023-12-20T13:53:52;98105.50;;;5.67
79053;BMP280;68451;49.510;6.026;2023-12-20T13:56:19;98164.75;;;5.98
79053;BMP280;68451;49.510;6.026;2023-12-20T13:58:46;98223.44;;;6.27
79053;BMP280;68451;49.510;6.026;2023-12-20T14:01:13;98203.16;;;6.37
79053;BMP280;68451;49.510;6.026;2023-12-20T14:03:40;98083.69;;;5.55
79053;BMP280;68451;49.510;6.026;2023-12-20T14:06:08;98184.63;;;6.12
79053;BMP280;68451;49.510;6.026;2023-12-20T14:08:35;98217.69;;;6.32
79053;BMP280;68451;49.510;6.026;2023-12-20T14:11:02;98228.31;;;6.37
79053;BMP280;68451;49.510;6.026;2023-12-20T14:13:29;98080.28;;;5.55
79053;BMP280;68451;49.510;6.026;2023-12-20T14:15:58;98225.81;;;6.50
79053;BMP280;68451;49.510;6.026;2023-12-20T14:18:27;98209.19;;;6.44
79053;BMP280;68451;49.510;6.026;2023-12-20T14:20:54;98176.34;;;6.23
79053;BMP280;68451;49.510;6.026;2023-12-20T14:23:21;98223.22;;;6.56
79053;BMP280;68451;49.510;6.026;2023-12-20T14:25:49;98127.25;;;5.94
79053;BMP280;68451;49.510;6.026;2023-12-20T14:28:19;98174.41;;;6.32
79053;BMP280;68451;49.510;6.026;2023-12-20T14:30:46;98211.31;;;6.62
79053;BMP280;68451;49.510;6.026;2023-12-20T14:33:13;98185.34;;;6.55